Okay Dursun

Olheiro-Chefe - Antalyaspor
3 Dez 2028
Domingo
Processo

Personalidade

Adaptabilidade (9) Ambição (12) Controvérsia (18) Lealdade (2) Pressão (15) Profissionalismo (16) Espírito Esportivo (6) Temperamento (18)

Perfil

Estilo de Treinamento Democrático
Licença Continental Pro
Determinação 11
Gestão de Pessoas 10
Motivação 9
Disciplina 9
Satisfação no Trabalho
100%
Fadiga
0%
Função Olheiro-Chefe
Salário 87.9K p/s
Contrato 14.03.2030

Desempenho

Comportamento Bom
Eficácia do Treinamento
38%
Desenvolvimento do Jogador
30%
Prevenção de Lesões
30%
Implementação Tática
20%

Eventos Recentes

Participou de uma reunião de recrutamento agora
Recomendou um alvo de transferência agora
Recomendou um alvo de transferência agora
Recomendou um alvo de transferência agora
Recomendou um alvo de transferência agora
Recomendou um alvo de transferência agora
Recomendou um alvo de transferência agora
Participou de uma reunião de recrutamento agora

Monitorando agora

201
Jogador Clube Status Habilidade Confiança Observado Última observação Último voto
Andrey Ivlev Nizhniy Novgorod Ativo 120 / 116 40% 2 04.07.2028 -
Simone Suppa Virtus Verona Ativo 86 / 93 40% 1 04.07.2028 -
Giovanni Leoni Lincoln City Ativo 136 / 141 40% 1 04.07.2028 -
Siyabonga Mabena Bidvest Wits Ativo 113 / 137 40% 1 26.06.2028 -
Rémi Himbert AC Ajaccio Ativo 119 / 133 40% 1 26.06.2028 -
Fletcher Boyd Accrington Stanley Ativo 115 / 114 40% 1 14.06.2028 -
Alessio Raballo Carrarese Ativo 85 / 91 40% 1 14.06.2028 -
Francisco Souza Silva Feirense Ativo 118 / 117 40% 1 14.06.2028 -
Ryunosuke Sato Eibar Ativo 126 / 130 40% 1 08.06.2028 -
Rio Ngumoha Plymouth Argyle Ativo 148 / 147 40% 1 08.06.2028 -
Luca Williams-Barnett Walsall Ativo 119 / 136 40% 1 05.06.2028 -
Ryan McAidoo Oldham Athletic Ativo 133 / 123 40% 1 05.06.2028 -
Musa Danjuma Umraniyespor Ativo 101 / 105 40% 2 27.04.2028 -
Andrija Bulatović Chamois Niortais Ativo 139 / 128 40% 3 27.04.2028 -
Jorge Salinas Racing Santander Ativo 141 / 130 40% 4 27.04.2028 -
Christos Mouzakitis Hull City Ativo 129 / 134 40% 6 26.04.2028 -
Federico Matarán Giana Erminio Ativo 113 / 120 40% 1 26.04.2028 -
Tyler Fletcher Rotherham United Ativo 113 / 108 40% 3 24.04.2028 -
Martim Cunha Porto Ativo 112 / 112 40% 3 24.04.2028 -
Pape Diong Westerlo Ativo 117 / 135 40% 2 21.04.2028 -
Lucas Høgsberg RC Strasbourg Ativo 152 / 136 40% 1 20.04.2028 -
Héctor Fort Real Sociedad Ativo 149 / 144 40% 2 18.04.2028 -
Ayden Heaven Portsmouth Ativo 154 / 144 40% 2 18.04.2028 -
Lamine Bèye Portimonense Ativo 101 / 111 40% 2 17.04.2028 -
Morteza Torabi Malavan Ativo 99 / 113 40% 2 17.04.2028 -
Honest Ahanor Atalanta Ativo 125 / 150 40% 3 17.04.2028 -
Jack Wint Sibenik Ativo 87 / 104 40% 2 06.04.2028 -
Lucas Wolfert Racing Club Ativo 96 / 104 40% 1 06.04.2028 -
Samuel Atehortúa Deportivo Pereira Ativo 93 / 87 40% 1 05.04.2028 -
Diego Mascardi Juventus Ativo 126 / 143 40% 2 04.04.2028 -
Seb Stacey Crawley Town Ativo 99 / 100 40% 1 04.04.2028 -
Fernando Bravo Almería Ativo 96 / 119 40% 1 04.04.2028 -
Kiani Inge Groningen Ativo 117 / 124 40% 1 03.04.2028 -
Robert Cook Accrington Stanley Ativo 103 / 107 40% 1 31.03.2028 -
Máximo Núñez Los Andes Ativo 103 / 112 40% 1 31.03.2028 -
Galo Avendaño Aldosivi Ativo 84 / 99 40% 1 31.03.2028 -
Felipe Igón Racing Club Ativo 106 / 104 40% 1 30.03.2028 -
Franco Yennerich Talleres Ativo 90 / 94 40% 1 30.03.2028 -
Matias Siltanen Malmo FF Ativo 128 / 127 40% 6 25.03.2028 -
Olivier Leroux Mouscron Ativo 104 / 110 40% 3 24.03.2028 -
Josh Nichols Oldham Athletic Ativo 108 / 123 40% 2 24.03.2028 -
Konta Ismaily Ativo 102 / 104 40% 1 20.03.2028 -
Josh Acheampong Everton Ativo 146 / 138 40% 2 19.03.2028 -
Izan Merino Málaga Ativo 121 / 139 40% 1 19.03.2028 -
Jan Bürger Northampton Town Ativo 109 / 118 40% 1 19.03.2028 -
Bernardo Lima Porto Ativo 117 / 113 40% 2 18.03.2028 -
Matvey Bardachev Zenit Ativo 104 / 119 40% 1 18.03.2028 -
Abubakar Adams Aduana Stars Ativo 76 / 96 40% 2 17.03.2028 -
Thijs Kraaijeveld USM Alger Ativo 120 / 120 40% 1 16.03.2028 -
Dmytro Strilchuk Podillia Ativo 74 / 88 40% 2 15.03.2028 -
Daniel Banjaqui Benfica Ativo 127 / 132 40% 1 15.03.2028 -
Milad Nekounam Gostaresh Foulad Ativo 80 / 89 40% 1 14.03.2028 -
Riquelme Thompson-Jones Accrington Stanley Ativo 109 / 113 40% 1 13.03.2028 -
Andrey Tsitsilin Baltika Ativo 70 / 80 40% 1 13.03.2028 -
Thiago Sabella Banfield Ativo 90 / 100 40% 1 13.03.2028 -
Ignacio Roldán Lanús Ativo 93 / 102 40% 1 13.03.2028 -
Nicolò Moranduzzo Renate Ativo 94 / 107 40% 1 06.03.2028 -
Arda Ünyay Galatasaray Ativo 102 / 118 65% 1 24.01.2028 Aprovar
Facundo Torres Millonarios Ativo 134 / 134 67% 1 01.01.2028 Aprovar
Toni Fruk Talleres Ativo 132 / 133 66% 1 01.01.2028 Aprovar
Jeremías Merlo Gimnasia La Plata Ativo 128 / 129 40% 2 31.12.2027 -
Seb Ferdinand Rotherham United Ativo 127 / 126 40% 1 31.12.2027 -
Devrim Şahin Dukla Prague Ativo 106 / 109 40% 1 31.12.2027 -
Kabiru Abdullahi Barau Ativo 94 / 93 40% 1 08.12.2027 -
Chimobi Igwilo Rangers International Ativo 82 / 91 40% 3 21.11.2027 -
Francisco Triver River Plate Ativo 86 / 94 40% 2 21.11.2027 -
Christ Wawa Gefle Ativo 95 / 112 40% 3 19.11.2027 -
Mateo Silvetti Seattle Sounders Ativo 123 / 126 40% 3 19.11.2027 -
Eli Junior Kroupi Bournemouth Ativo 156 / 143 40% 1 19.11.2027 -
Matías Arias Vélez Ativo 116 / 124 40% 2 18.11.2027 -
Jayden Danns Bradford City Ativo 144 / 148 40% 1 18.11.2027 -
Colin Guske Orlando City Ativo 96 / 105 40% 1 18.11.2027 -
Victor Hernandez Santa Fe Ativo 127 / 130 40% 7 17.11.2027 -
Hassan Beja AFC Leopards Ativo 101 / 87 40% 5 15.11.2027 -
Giovanni Baroni Talleres Ativo 110 / 118 40% 3 15.11.2027 -
Mateo Peralta Danubio Ativo 114 / 120 40% 2 15.11.2027 -
Mustapha Umar Kano Pillars Ativo 97 / 88 40% 4 12.11.2027 -
Pedro Baltika Ativo 131 / 145 40% 2 12.11.2027 -
Nicolás Ferreira Artigas Ativo 79 / 87 40% 1 12.11.2027 -
Emmanuel Ndubueze Shooting Stars Ativo 95 / 92 40% 3 11.11.2027 -
Valentino Acuña Newell's Old Boys Ativo 113 / 118 40% 3 10.11.2027 -
Nicolás Barros Schelotto Gimnasia La Plata Ativo 121 / 123 40% 5 08.11.2027 -
Maren Kefas Plateau United Ativo 89 / 95 40% 6 06.11.2027 -
Idris Ajiya Nasarawa United Ativo 94 / 89 40% 2 06.11.2027 -
Tiago Pucciarelli IF Elfsborg Ativo 103 / 101 40% 2 05.11.2027 -
Nupe Godstime Bayelsa United Ativo 89 / 95 40% 2 02.11.2027 -
Ben Gannon Doak Charlton Athletic Ativo 143 / 159 40% 1 20.10.2027 -
Alex Verón Vélez Ativo 111 / 127 40% 3 17.10.2027 -
Albert Aleksanjan IFK Norrkoping Ativo 110 / 112 40% 1 17.10.2027 -
Alex Amaefula Kun Khalifat Ativo 75 / 87 40% 1 16.10.2027 -
Francisco Marchant Colo-Colo Ativo 95 / 105 40% 1 13.10.2027 -
Julián Bragado Morón Ativo 81 / 87 40% 1 13.10.2027 -
Musa Malik Ikorodu City Ativo 81 / 90 40% 1 12.10.2027 -
Wisdom Udom Bendel Insurance Ativo 94 / 93 40% 2 11.10.2027 -
Juan Rodríguez Cerro Largo Ativo 98 / 96 40% 1 11.10.2027 -
Gabriel Lopes San Marcos de Arica Ativo 96 / 104 40% 2 09.10.2027 -
Joel Ezra Enyimba Ativo 88 / 105 40% 2 08.10.2027 -
Lucas Camejo River Plate Ativo 83 / 91 40% 2 08.10.2027 -
Lucas Duré Montevideo City Torque Ativo 103 / 100 40% 1 06.10.2027 -
Abdulrahman Hamisu Niger Tornadoes Ativo 94 / 91 40% 1 04.10.2027 -
Luis Yanes Real Cartagena Ativo 97 / 104 40% 1 03.10.2027 -
Abubakar Garba Nasarawa United Ativo 94 / 96 40% 7 02.10.2027 -
Didier Dawson Envigado Ativo 112 / 107 40% 2 29.09.2027 -
Esteban de Lima Tacuarembo Ativo 87 / 99 40% 2 21.09.2027 -
Kwandile Gumemde US Bougouni Ativo 84 / 92 40% 1 07.09.2027 -
Gabriele Bertolini Vicenza Ativo 117 / 105 40% 1 16.08.2027 -
Mbekezeli Mbokazi Chicago Fire Ativo 116 / 121 40% 1 27.07.2027 -
João Mendes Kayserispor Ativo 124 / 117 62% 1 12.07.2027 Aprovar
Issa Yusuf Shooting Stars Ativo 94 / 93 40% 1 05.07.2027 -
Pedro de la Vega Columbus Crew Ativo 133 / 134 66% 1 01.06.2027 Aprovar
Chari Giwa US Bougouni Ativo 72 / 80 40% 1 31.05.2027 -
Milan van Ewijk Coventry City Ativo 145 / 133 40% 2 30.05.2027 -
Ali Ahmed Norwich City Ativo 128 / 116 40% 3 30.05.2027 -
Miguel Figueiredo Benfica Ativo 98 / 119 40% 1 30.05.2027 -
Tommaso Cecotti Carpi Ativo 96 / 96 40% 1 29.05.2027 -
Alex Robertson Cardiff City Ativo 110 / 127 40% 2 26.05.2027 -
Max Johnston Derby County Ativo 141 / 133 40% 2 24.05.2027 -
Jack Rudoni Coventry City Ativo 137 / 138 40% 2 23.05.2027 -
Chemsdine Talbi Sunderland Ativo 132 / 146 40% 4 22.05.2027 -
Mohamed-Ali Cho Hull City Ativo 125 / 132 40% 4 21.05.2027 -
Marcel Ruiz Crystal Palace Ativo 146 / 143 40% 2 20.05.2027 -
Derensili Sanches Fernandes Huddersfield Town Ativo 133 / 123 40% 1 19.05.2027 -
Alex Lowry Wycombe Wanderers Ativo 110 / 114 40% 1 18.05.2027 -
Kwadwo Baah Watford Ativo 128 / 124 40% 3 17.05.2027 -
Max Bird Birmingham Ativo 126 / 123 40% 2 15.05.2027 -
Bade Aluko Leicester City Ativo 126 / 129 40% 1 13.05.2027 -
Rodrigo Gomes Wolverhampton Ativo 142 / 139 40% 3 11.05.2027 -
Dennis Cirkin Queens Park Rangers Ativo 142 / 119 40% 1 11.05.2027 -
Lucas Bergvall Tottenham Ativo 158 / 144 40% 1 11.05.2027 -
Ilyas Ansah Hull City Ativo 119 / 129 40% 1 08.05.2027 -
Isaiah Jones Luton Town Ativo 117 / 132 40% 3 07.05.2027 -
Welington Southampton Ativo 128 / 125 40% 2 05.05.2027 -
Samuele di Benedetto Twente Ativo 121 / 117 40% 1 04.05.2027 -
Cian Ashford Cardiff City Ativo 119 / 124 40% 5 01.05.2027 -
Enzo Le Fée Sunderland Ativo 148 / 143 40% 1 29.04.2027 -
Nicolò Zaniolo Udinese Ativo 158 / 144 40% 2 27.04.2027 -
Joe Gelhardt Hull City Ativo 144 / 125 40% 3 26.04.2027 -
Florentino Luís Ipswich Town Ativo 139 / 136 40% 3 26.04.2027 -
Oswin Appollis Orlando Pirates Ativo 130 / 120 40% 4 23.04.2027 -
Rivaldo Mkhize Black Aces Ativo 83 / 78 40% 1 19.04.2027 -
Ahmed Zaki Masr El Makasa Ativo 63 / 73 40% 1 19.04.2027 -
Sidny Lopes Cabral Trabzonspor Ativo 133 / 132 40% 2 16.04.2027 -
Andre Brooks Sheffield United Ativo 124 / 119 40% 3 15.04.2027 -
Scott Twine Bristol City Ativo 120 / 128 40% 4 13.04.2027 -
Charlie Gray Fleetwood Town Ativo 103 / 95 40% 1 11.04.2027 -
Tyrese Campbell Sheffield United Ativo 126 / 129 40% 1 11.04.2027 -
Joel Bagan Cardiff City Ativo 118 / 120 40% 1 09.04.2027 -
Juan Bezerra Zamalek Ativo 107 / 121 40% 2 07.04.2027 -
David Ozoh Derby County Ativo 134 / 122 40% 2 05.04.2027 -
Samuel Edozie Southampton Ativo 135 / 129 40% 1 31.03.2027 -
Yehor Yarmoliuk Brentford Ativo 137 / 158 40% 1 26.03.2027 -
Tahith Chong Sheffield United Ativo 108 / 116 40% 1 23.03.2027 -
Justo Giani Umraniyespor Ativo 121 / 120 40% 2 22.03.2027 -
Bobby Clark Derby County Ativo 137 / 116 40% 2 21.03.2027 -
Matt O'Riley Brighton Ativo 135 / 148 40% 2 18.03.2027 -
Oston O'runov Persepolis Ativo 136 / 122 40% 3 17.03.2027 -
Amine Adli Bournemouth Ativo 134 / 133 40% 1 17.03.2027 -
Mohammad Mehdi Mohebi Persepolis Ativo 107 / 116 40% 2 15.03.2027 -
Festy Ebosele Basaksehir Ativo 121 / 124 40% 1 14.03.2027 -
Bongani Zungu Ajax Cape Town Ativo 124 / 118 40% 1 10.03.2027 -
Wilson Isidor Sunderland Ativo 131 / 135 40% 1 08.03.2027 -
Alex Scott Bournemouth Ativo 153 / 150 40% 2 28.02.2027 -
Mehdi Hashemnejad Tractor Ativo 107 / 112 40% 1 18.02.2027 -
Nazar Voloshyn Dynamo Kyiv Ativo 115 / 119 40% 1 08.02.2027 -
Peter Federico Gornik Zabrze Ativo 134 / 116 40% 1 30.01.2027 -
Bradley Zwane SuperSport United Ativo 104 / 118 40% 1 25.01.2027 -
Finn Azaz Southampton Ativo 141 / 129 40% 1 13.01.2027 -
Serginho Al Wasl Ativo 138 / 128 40% 1 11.01.2027 -
Sampson Dweh Mallorca Ativo 133 / 134 66% 1 01.01.2027 Aprovar
Oliver Skipp Leicester City Ativo 143 / 126 40% 1 01.01.2027 -
Ryan Sessegnon Fulham Ativo 147 / 140 40% 1 01.01.2027 -
Miloš Jovičić Zabbar St. Patrick Ativo 103 / 96 40% 4 29.12.2026 -
Patrick Agyemang Derby County Ativo 128 / 123 40% 1 28.12.2026 -
Naledi Hlongwane Wa All Stars Ativo 95 / 94 40% 1 26.12.2026 -
Víctor Guzmán Sporting CP Ativo 97 / 91 40% 1 24.12.2026 -
Rocco Vata Watford Ativo 125 / 135 40% 4 23.12.2026 -
Mikel Gogorza Brondby Ativo 123 / 121 40% 1 21.12.2026 -
Marko Brkić NK Krka Ativo 101 / 92 40% 1 20.12.2026 -
Ammar Ramadan DAC Dunajska Streda Ativo 113 / 132 40% 2 18.12.2026 -
Eddie Nketiah Crystal Palace Ativo 137 / 146 40% 1 18.12.2026 -
Younes El Bahraoui Al-Taawoun Ativo 96 / 118 40% 1 16.12.2026 -
Ryan Oné Sheffield United Ativo 121 / 117 40% 1 16.12.2026 -
Leo Castledine Middlesbrough Ativo 112 / 133 40% 2 13.12.2026 -
Luke Baartman Ajax Cape Town Ativo 108 / 119 40% 1 12.12.2026 -
Bariş Kalaycı Fatih Karagumruk Ativo 97 / 102 40% 1 07.12.2026 Mais informações
Lwanda Mbanjwa Platinum Stars Ativo 102 / 107 40% 1 04.12.2026 -
Mateus Mané Burnley Ativo 121 / 128 40% 1 02.12.2026 -
Olívio Tomé Benfica Ativo 118 / 101 40% 1 09.11.2026 -
Robert FC Copenhagen Ativo 126 / 139 40% 2 04.11.2026 -
Gianluca Prestianni Benfica Ativo 130 / 130 40% 1 02.11.2026 -
Kirill Glebov CSKA Moscow Ativo 113 / 128 40% 3 01.11.2026 -
Matteo Pérez Vinlöf Dinamo Zagreb Ativo 122 / 140 40% 1 29.10.2026 -
Veljko Radosavljević Cukaricki Ativo 108 / 106 40% 1 27.10.2026 -
Agustín Medina Lanús Ativo 114 / 118 40% 1 27.10.2026 -
Santiago Segovia Rosario Central Ativo 104 / 121 40% 1 25.10.2026 -
Nino Marcelli Slovan Bratislava Ativo 112 / 121 40% 1 22.10.2026 -
Martin Gjorgievski Zbrojovka Brno Ativo 118 / 115 40% 1 19.10.2026 -
Tomás Aranda Boca Juniors Ativo 109 / 123 40% 1 18.10.2026 -
Daniel Awuni Aduana Stars Ativo 89 / 102 40% 1 16.10.2026 -
Paulo Díaz Atlanta United FC Ativo 125 / 142 40% 1 04.08.2026 -
Mikkel Desler Austin FC Ativo 131 / 125 40% 1 04.08.2026 -